createdAt,value
2017-08-22T00:00:57.816Z,15.20
2017-08-22T00:03:42.896Z,15.10
2017-08-22T00:06:10.352Z,15.00
2017-08-22T00:08:37.808Z,15.10
2017-08-22T00:11:05.256Z,15.10
2017-08-22T00:13:32.693Z,15.10
2017-08-22T00:16:00.179Z,15.10
2017-08-22T00:18:27.636Z,15.10
2017-08-22T00:20:55.061Z,15.00
2017-08-22T00:23:22.534Z,15.00
2017-08-22T00:25:49.978Z,14.90
2017-08-22T00:28:17.402Z,14.90
2017-08-22T00:30:44.909Z,14.80
2017-08-22T00:33:12.370Z,14.70
2017-08-22T00:35:39.790Z,14.70
2017-08-22T00:38:07.227Z,14.70
2017-08-22T00:40:34.735Z,14.70
2017-08-22T00:43:02.189Z,14.70
2017-08-22T00:45:29.617Z,14.70
2017-08-22T00:47:57.045Z,14.70
2017-08-22T00:50:24.493Z,14.70
2017-08-22T00:52:51.908Z,14.60
2017-08-22T00:55:19.392Z,14.60
2017-08-22T00:57:46.817Z,14.50
2017-08-22T01:00:14.252Z,14.50
2017-08-22T01:02:42.475Z,14.50
2017-08-22T01:05:10.037Z,14.50
2017-08-22T01:07:37.461Z,14.50
2017-08-22T01:10:04.894Z,14.50
2017-08-22T01:12:32.404Z,14.50
2017-08-22T01:14:59.853Z,14.60
2017-08-22T01:17:27.277Z,14.60
2017-08-22T01:19:54.772Z,14.60
2017-08-22T01:22:22.227Z,14.60
2017-08-22T01:24:49.736Z,14.60
2017-08-22T01:27:17.259Z,14.60
2017-08-22T01:29:44.677Z,14.70
2017-08-22T01:32:12.111Z,14.70
2017-08-22T01:34:39.625Z,14.60
2017-08-22T01:37:07.052Z,14.50
2017-08-22T01:39:34.539Z,14.40
2017-08-22T01:42:01.965Z,14.50
2017-08-22T01:44:29.395Z,14.50
2017-08-22T01:46:56.897Z,14.60
2017-08-22T01:49:24.344Z,14.50
2017-08-22T01:51:51.772Z,14.50
2017-08-22T01:54:19.273Z,14.50
2017-08-22T01:56:46.700Z,14.60
2017-08-22T01:59:14.182Z,14.60
2017-08-22T02:01:41.597Z,14.60
2017-08-22T02:04:09.046Z,14.60
2017-08-22T02:06:36.460Z,14.60
2017-08-22T02:09:03.888Z,14.60
2017-08-22T02:11:32.080Z,14.60
2017-08-22T02:13:59.505Z,14.60
2017-08-22T02:16:27.012Z,14.60
2017-08-22T02:18:54.432Z,14.60
2017-08-22T02:21:21.861Z,14.60
2017-08-22T02:23:49.673Z,14.50
2017-08-22T02:26:17.104Z,14.50
2017-08-22T02:28:44.640Z,14.60
2017-08-22T02:31:12.052Z,14.50
2017-08-22T02:33:39.488Z,14.60
2017-08-22T02:36:06.925Z,14.60
2017-08-22T02:38:34.437Z,14.60
2017-08-22T02:41:01.860Z,14.60
2017-08-22T02:43:29.294Z,14.60
2017-08-22T02:45:56.756Z,14.60
2017-08-22T02:48:24.264Z,14.60
2017-08-22T02:50:51.761Z,14.50
2017-08-22T02:53:19.215Z,14.50
2017-08-22T02:55:46.770Z,14.50
2017-08-22T02:58:14.187Z,14.40
2017-08-22T03:00:41.693Z,14.40
2017-08-22T03:03:09.168Z,14.40
2017-08-22T03:05:36.616Z,14.30
2017-08-22T03:08:04.053Z,14.30
2017-08-22T03:10:31.527Z,14.30
2017-08-22T03:12:58.972Z,14.40
2017-08-22T03:15:26.438Z,14.40
2017-08-22T03:17:53.873Z,14.40
2017-08-22T03:20:21.360Z,14.40
2017-08-22T03:22:48.920Z,14.40
2017-08-22T03:25:16.380Z,14.40
2017-08-22T03:27:43.814Z,14.50
2017-08-22T03:30:11.238Z,14.40
2017-08-22T03:32:38.736Z,14.30
2017-08-22T03:35:06.160Z,14.30
2017-08-22T03:37:33.661Z,14.40
2017-08-22T03:40:01.097Z,14.40
2017-08-22T03:42:28.528Z,14.40
2017-08-22T03:44:56.025Z,14.30
2017-08-22T03:47:23.474Z,14.30
2017-08-22T03:49:50.898Z,14.30
2017-08-22T03:52:18.323Z,14.20
2017-08-22T03:54:45.843Z,14.20
2017-08-22T03:57:13.328Z,14.20
2017-08-22T03:59:40.850Z,14.20
2017-08-22T04:02:08.272Z,14.10
2017-08-22T04:04:35.697Z,14.10
2017-08-22T04:07:03.121Z,14.10
2017-08-22T04:09:30.540Z,14.20
2017-08-22T04:11:58.037Z,14.20
2017-08-22T04:14:25.493Z,14.20
2017-08-22T04:16:52.917Z,14.20
2017-08-22T04:19:20.348Z,14.20
2017-08-22T04:21:47.770Z,14.10
2017-08-22T04:24:15.227Z,14.10
2017-08-22T04:26:42.637Z,14.10
2017-08-22T04:29:10.092Z,14.10
2017-08-22T04:31:37.604Z,14.10
2017-08-22T04:34:05.013Z,14.10
2017-08-22T04:36:32.624Z,14.10
2017-08-22T04:39:00.140Z,14.10
2017-08-22T04:41:27.768Z,14.00
2017-08-22T04:43:55.198Z,14.00
2017-08-22T04:46:22.651Z,14.00
2017-08-22T04:48:50.396Z,14.00
2017-08-22T04:51:17.900Z,14.00
2017-08-22T04:53:45.352Z,14.00
2017-08-22T04:56:12.788Z,14.10
2017-08-22T04:58:40.299Z,14.10
2017-08-22T05:01:07.756Z,14.20
2017-08-22T05:03:35.199Z,14.20
2017-08-22T05:06:02.696Z,14.20
2017-08-22T05:08:30.117Z,14.20
2017-08-22T05:10:57.540Z,14.30
2017-08-22T05:13:24.966Z,14.20
2017-08-22T05:15:52.546Z,14.30
2017-08-22T05:18:19.982Z,14.30
2017-08-22T05:20:47.431Z,14.30
2017-08-22T05:23:14.899Z,14.40
2017-08-22T05:25:42.340Z,14.40
2017-08-22T05:28:09.812Z,14.40
2017-08-22T05:30:37.290Z,14.40
2017-08-22T05:33:04.900Z,14.50
2017-08-22T05:35:32.443Z,14.50
2017-08-22T05:37:59.865Z,14.50
2017-08-22T05:40:27.315Z,14.50
2017-08-22T05:42:54.804Z,14.40
2017-08-22T05:45:22.236Z,14.40
2017-08-22T05:47:49.709Z,14.40
2017-08-22T05:50:17.136Z,14.40
2017-08-22T05:52:44.625Z,14.40
2017-08-22T05:55:12.045Z,14.40
2017-08-22T05:57:39.543Z,14.40
2017-08-22T06:00:06.968Z,14.50
2017-08-22T06:02:34.414Z,14.60
2017-08-22T06:05:01.861Z,14.60
2017-08-22T06:07:29.280Z,14.70
2017-08-22T06:09:56.713Z,14.80
2017-08-22T06:12:24.127Z,14.90
2017-08-22T06:14:51.548Z,14.90
2017-08-22T06:17:18.986Z,15.00
2017-08-22T06:19:46.539Z,14.90
2017-08-22T06:22:14.004Z,14.80
2017-08-22T06:24:41.455Z,14.80
2017-08-22T06:27:08.886Z,14.90
2017-08-22T06:29:36.325Z,14.90
2017-08-22T06:32:03.732Z,14.90
2017-08-22T06:34:31.197Z,15.00
2017-08-22T06:36:58.605Z,15.10
2017-08-22T06:39:26.128Z,15.10
2017-08-22T06:41:53.568Z,15.10
2017-08-22T06:44:21.037Z,15.20
2017-08-22T06:46:48.497Z,15.20
2017-08-22T06:49:16.064Z,15.30
2017-08-22T06:51:43.541Z,15.30
2017-08-22T06:54:11.049Z,15.40
2017-08-22T06:56:38.464Z,15.40
2017-08-22T06:59:05.906Z,15.50
2017-08-22T07:01:33.373Z,15.60
2017-08-22T07:04:00.843Z,15.60
2017-08-22T07:06:28.295Z,15.60
2017-08-22T07:08:55.763Z,15.70
2017-08-22T07:11:23.221Z,15.80
2017-08-22T07:13:50.648Z,15.80
2017-08-22T07:16:18.141Z,15.90
2017-08-22T07:18:45.579Z,15.90
2017-08-22T07:21:13.028Z,16.00
2017-08-22T07:23:40.486Z,16.10
2017-08-22T07:26:07.937Z,16.10
2017-08-22T07:28:35.364Z,16.10
2017-08-22T07:31:02.839Z,16.20
2017-08-22T07:33:30.256Z,16.20
2017-08-22T07:35:57.753Z,16.30
2017-08-22T07:38:25.186Z,16.40
2017-08-22T07:40:52.625Z,16.40
2017-08-22T07:43:20.044Z,16.50
2017-08-22T07:45:47.559Z,16.60
2017-08-22T07:48:15.140Z,16.60
2017-08-22T07:50:42.588Z,16.50
2017-08-22T07:53:10.004Z,16.40
2017-08-22T07:55:37.496Z,16.40
2017-08-22T07:58:04.931Z,16.30
2017-08-22T08:00:32.409Z,16.40
2017-08-22T08:02:59.838Z,16.40
2017-08-22T08:05:27.261Z,16.50
2017-08-22T08:07:54.869Z,16.60
2017-08-22T08:10:22.274Z,16.60
2017-08-22T08:12:49.720Z,16.50
2017-08-22T08:15:17.152Z,16.70
2017-08-22T08:17:44.575Z,16.70
2017-08-22T08:20:11.997Z,16.80
2017-08-22T08:22:39.437Z,16.90
2017-08-22T08:25:06.869Z,17.10
2017-08-22T08:27:34.284Z,17.20
2017-08-22T08:30:01.745Z,17.30
2017-08-22T08:32:29.161Z,17.30
2017-08-22T08:34:56.644Z,17.30
2017-08-22T08:37:24.073Z,17.20
2017-08-22T08:39:51.492Z,17.30
2017-08-22T08:42:18.938Z,17.40
2017-08-22T08:44:46.555Z,17.50
2017-08-22T08:47:13.957Z,17.60
2017-08-22T08:49:41.478Z,17.80
2017-08-22T08:52:08.936Z,18.00
2017-08-22T08:54:36.399Z,18.00
2017-08-22T08:57:03.833Z,18.10
2017-08-22T08:59:31.252Z,18.00
2017-08-22T09:01:59.459Z,18.10
2017-08-22T09:04:26.934Z,18.00
2017-08-22T09:06:54.637Z,18.20
2017-08-22T09:09:22.188Z,17.90
2017-08-22T09:11:49.597Z,17.90
2017-08-22T09:14:17.054Z,17.70
2017-08-22T09:16:44.527Z,18.00
2017-08-22T09:19:12.071Z,18.00
2017-08-22T09:21:39.487Z,18.20
2017-08-22T09:24:07.015Z,18.40
2017-08-22T09:26:34.440Z,18.50
2017-08-22T09:29:01.900Z,18.60
2017-08-22T09:31:29.357Z,18.50
2017-08-22T09:33:56.811Z,18.50
2017-08-22T09:36:24.330Z,18.40
2017-08-22T09:38:51.738Z,17.90
2017-08-22T09:41:19.295Z,18.00
2017-08-22T09:43:46.712Z,18.20
2017-08-22T09:46:14.197Z,18.50
2017-08-22T09:48:41.624Z,18.50
2017-08-22T09:51:09.112Z,18.20
2017-08-22T09:53:36.576Z,18.40
2017-08-22T09:56:04.005Z,18.40
2017-08-22T09:58:31.585Z,18.50
2017-08-22T10:00:59.039Z,18.50
2017-08-22T10:03:26.452Z,18.50
2017-08-22T10:05:53.875Z,18.80
2017-08-22T10:08:21.308Z,19.10
2017-08-22T10:10:48.764Z,19.20
2017-08-22T10:13:16.199Z,19.40
2017-08-22T10:15:43.628Z,19.70
2017-08-22T10:18:11.133Z,19.90
2017-08-22T10:20:38.557Z,20.20
2017-08-22T10:23:06.068Z,19.90
2017-08-22T10:25:33.524Z,19.70
2017-08-22T10:28:01.049Z,19.60
2017-08-22T10:30:28.525Z,19.40
2017-08-22T10:32:55.933Z,19.60
2017-08-22T10:35:23.436Z,19.70
2017-08-22T10:38:18.694Z,19.30
2017-08-22T10:40:46.200Z,19.40
2017-08-22T10:43:13.664Z,19.50
2017-08-22T10:45:41.089Z,19.60
2017-08-22T10:48:08.521Z,19.80
2017-08-22T10:50:36.694Z,20.00
2017-08-22T10:53:04.895Z,20.30
2017-08-22T10:55:32.359Z,20.30
2017-08-22T10:57:59.813Z,20.70
2017-08-22T11:00:27.272Z,20.70
2017-08-22T11:02:54.705Z,20.80
2017-08-22T11:05:22.310Z,20.90
2017-08-22T11:07:49.761Z,21.20
2017-08-22T11:10:17.221Z,20.80
2017-08-22T11:12:44.681Z,20.70
2017-08-22T11:15:12.104Z,20.50
2017-08-22T11:17:39.700Z,20.30
2017-08-22T11:20:07.141Z,20.50
2017-08-22T11:22:34.564Z,20.60
2017-08-22T11:25:02.037Z,20.90
2017-08-22T11:27:29.534Z,21.00
2017-08-22T11:29:56.949Z,21.40
2017-08-22T11:32:24.432Z,21.50
2017-08-22T11:34:51.857Z,21.80
2017-08-22T11:37:19.287Z,21.80
2017-08-22T11:39:46.804Z,21.90
2017-08-22T11:42:14.231Z,21.90
2017-08-22T11:44:41.661Z,21.60
2017-08-22T11:47:09.165Z,21.90
2017-08-22T11:49:36.628Z,21.70
2017-08-22T11:52:04.058Z,21.40
2017-08-22T11:54:31.646Z,20.90
2017-08-22T11:56:59.099Z,21.20
2017-08-22T11:59:26.512Z,21.60
2017-08-22T12:01:53.964Z,22.60
2017-08-22T12:04:21.480Z,23.00
2017-08-22T12:06:48.909Z,23.70
2017-08-22T12:09:16.386Z,24.70
2017-08-22T12:11:43.804Z,25.20
2017-08-22T12:14:11.309Z,25.80
2017-08-22T12:16:38.777Z,26.10
2017-08-22T12:19:06.197Z,24.60
2017-08-22T12:21:33.650Z,25.50
2017-08-22T12:24:01.044Z,26.60
2017-08-22T12:26:28.494Z,28.00
2017-08-22T12:28:55.917Z,28.70
2017-08-22T12:31:23.411Z,29.80
2017-08-22T12:33:50.843Z,29.00
2017-08-22T12:36:18.326Z,29.50
2017-08-22T12:38:45.861Z,29.60
2017-08-22T12:41:13.322Z,28.70
2017-08-22T12:43:40.781Z,30.20
2017-08-22T12:46:08.235Z,31.20
2017-08-22T12:48:35.686Z,31.30
2017-08-22T12:51:03.090Z,31.40
2017-08-22T12:53:30.530Z,31.90
2017-08-22T12:55:57.956Z,32.20
2017-08-22T12:58:25.386Z,31.40
2017-08-22T13:00:53.105Z,29.90
2017-08-22T13:03:20.536Z,29.10
2017-08-22T13:05:47.998Z,29.70
2017-08-22T13:08:15.448Z,30.60
2017-08-22T13:10:42.884Z,30.20
2017-08-22T13:13:10.312Z,28.60
2017-08-22T13:15:37.821Z,30.00
2017-08-22T13:18:05.247Z,30.40
2017-08-22T13:20:32.832Z,29.60
2017-08-22T13:23:00.296Z,27.40
2017-08-22T13:25:27.711Z,26.00
2017-08-22T13:27:55.208Z,25.00
2017-08-22T13:30:22.672Z,23.50
2017-08-22T13:32:50.120Z,23.50
2017-08-22T13:35:17.555Z,23.50
2017-08-22T13:37:44.985Z,23.40
2017-08-22T13:40:12.409Z,22.80
2017-08-22T13:42:39.948Z,21.70
2017-08-22T13:45:07.404Z,21.70
2017-08-22T13:47:34.895Z,21.70
2017-08-22T13:50:02.328Z,21.70
2017-08-22T13:52:29.772Z,21.50
2017-08-22T13:54:57.233Z,21.40
2017-08-22T13:57:24.665Z,21.50
2017-08-22T13:59:52.072Z,22.00
2017-08-22T14:02:19.524Z,23.40
2017-08-22T14:04:46.953Z,24.40
2017-08-22T14:07:14.384Z,25.80
2017-08-22T14:09:41.861Z,28.20
2017-08-22T14:12:09.308Z,26.80
2017-08-22T14:14:36.748Z,26.00
2017-08-22T14:17:04.237Z,25.10
2017-08-22T14:19:31.653Z,24.00
2017-08-22T14:21:59.084Z,23.10
2017-08-22T14:24:26.624Z,22.60
2017-08-22T14:26:54.166Z,22.30
2017-08-22T14:29:21.591Z,22.10
2017-08-22T14:31:49.012Z,22.10
2017-08-22T14:34:16.437Z,22.30
2017-08-22T14:36:43.891Z,22.40
2017-08-22T14:39:11.348Z,22.00
2017-08-22T14:41:38.776Z,22.90
2017-08-22T14:44:07.000Z,25.70
2017-08-22T14:46:34.435Z,25.60
2017-08-22T14:49:01.897Z,27.00
2017-08-22T14:51:29.312Z,26.60
2017-08-22T14:53:57.528Z,25.40
2017-08-22T14:56:24.989Z,25.40
2017-08-22T14:58:52.441Z,24.50
2017-08-22T15:01:19.995Z,24.10
2017-08-22T15:03:47.456Z,24.00
2017-08-22T15:06:14.877Z,23.80
2017-08-22T15:08:42.369Z,25.00
2017-08-22T15:11:09.824Z,26.50
2017-08-22T15:13:37.311Z,27.90
2017-08-22T15:16:04.735Z,28.30
2017-08-22T15:18:33.221Z,28.90
2017-08-22T15:21:00.640Z,29.30
2017-08-22T15:23:28.155Z,29.70
2017-08-22T15:25:55.601Z,28.20
2017-08-22T15:28:23.054Z,25.50
2017-08-22T15:30:50.509Z,24.20
2017-08-22T15:33:17.954Z,23.30
2017-08-22T15:35:45.428Z,22.90
2017-08-22T15:38:12.845Z,22.30
2017-08-22T15:40:40.277Z,21.90
2017-08-22T15:43:07.800Z,21.70
2017-08-22T15:45:35.342Z,21.60
2017-08-22T15:48:02.802Z,21.20
2017-08-22T15:50:30.227Z,21.10
2017-08-22T15:52:57.643Z,20.80
2017-08-22T15:55:25.071Z,20.60
2017-08-22T15:57:52.526Z,20.60
2017-08-22T16:00:19.959Z,20.80
2017-08-22T16:02:47.364Z,21.00
2017-08-22T16:05:14.901Z,21.10
2017-08-22T16:07:42.329Z,21.40
2017-08-22T16:10:09.752Z,22.00
2017-08-22T16:12:37.369Z,21.90
2017-08-22T16:15:04.835Z,22.60
2017-08-22T16:17:32.249Z,23.00
2017-08-22T16:19:59.737Z,23.00
2017-08-22T16:22:27.152Z,23.20
2017-08-22T16:24:54.582Z,23.10
2017-08-22T16:27:22.036Z,23.00
2017-08-22T16:29:49.488Z,22.70
2017-08-22T16:32:16.919Z,22.90
2017-08-22T16:34:45.117Z,23.40
2017-08-22T16:37:12.577Z,23.40
2017-08-22T16:39:40.003Z,23.70
2017-08-22T16:42:07.488Z,22.80
2017-08-22T16:44:34.944Z,22.30
2017-08-22T16:47:02.406Z,21.90
2017-08-22T16:49:29.835Z,21.60
2017-08-22T16:51:57.316Z,21.50
2017-08-22T16:54:24.747Z,21.60
2017-08-22T16:56:52.161Z,21.80
2017-08-22T16:59:19.596Z,21.90
2017-08-22T17:01:47.018Z,22.10
2017-08-22T17:04:14.437Z,22.40
2017-08-22T17:06:41.956Z,22.40
2017-08-22T17:09:09.393Z,22.40
2017-08-22T17:11:36.865Z,22.20
2017-08-22T17:14:04.297Z,22.50
2017-08-22T17:16:31.875Z,22.60
2017-08-22T17:18:59.349Z,22.70
2017-08-22T17:21:26.794Z,22.60
2017-08-22T17:23:54.256Z,22.90
2017-08-22T17:26:21.683Z,23.30
2017-08-22T17:28:49.156Z,23.20
2017-08-22T17:31:16.572Z,23.00
2017-08-22T17:33:44.080Z,22.90
2017-08-22T17:36:11.537Z,21.90
2017-08-22T17:38:38.972Z,21.70
2017-08-22T17:41:06.542Z,21.40
2017-08-22T17:43:34.001Z,21.20
2017-08-22T17:46:01.418Z,21.10
2017-08-22T17:48:28.841Z,20.80
2017-08-22T17:50:56.274Z,20.50
2017-08-22T17:53:23.708Z,20.30
2017-08-22T17:55:51.183Z,20.20
2017-08-22T17:58:18.615Z,20.10
2017-08-22T18:00:46.012Z,19.90
2017-08-22T18:03:13.456Z,19.80
2017-08-22T18:05:40.893Z,19.80
2017-08-22T18:08:08.354Z,19.70
2017-08-22T18:10:35.752Z,19.70
2017-08-22T18:13:03.182Z,19.60
2017-08-22T18:15:30.631Z,19.50
2017-08-22T18:17:58.050Z,19.50
2017-08-22T18:20:25.471Z,19.40
2017-08-22T18:22:52.892Z,19.30
2017-08-22T18:25:20.346Z,19.30
2017-08-22T18:27:47.809Z,19.30
2017-08-22T18:30:15.238Z,19.10
2017-08-22T18:32:42.712Z,19.00
2017-08-22T18:35:10.180Z,19.00
2017-08-22T18:37:37.606Z,18.90
2017-08-22T18:40:05.182Z,18.80
2017-08-22T18:42:32.650Z,18.60
2017-08-22T18:45:00.129Z,18.60
2017-08-22T18:47:27.656Z,18.60
2017-08-22T18:49:56.136Z,18.60
2017-08-22T18:52:23.697Z,18.60
2017-08-22T18:54:51.116Z,18.60
2017-08-22T18:57:19.340Z,18.50
2017-08-22T18:59:46.781Z,18.50
2017-08-22T19:02:14.264Z,18.50
2017-08-22T19:04:41.696Z,18.50
2017-08-22T19:07:09.159Z,18.40
2017-08-22T19:09:36.604Z,18.40
2017-08-22T19:12:04.041Z,18.40
2017-08-22T19:14:31.525Z,18.20
2017-08-22T19:16:58.984Z,18.20
2017-08-22T19:19:26.416Z,18.20
2017-08-22T19:21:53.891Z,18.20
2017-08-22T19:24:21.345Z,18.10
2017-08-22T19:26:48.807Z,18.10
2017-08-22T19:29:16.263Z,18.10
2017-08-22T19:31:43.718Z,18.10
2017-08-22T19:34:11.176Z,18.00
2017-08-22T19:36:38.637Z,18.00
2017-08-22T19:39:06.091Z,18.00
2017-08-22T19:41:33.520Z,18.00
2017-08-22T19:44:01.003Z,18.00
2017-08-22T19:46:28.475Z,17.90
2017-08-22T19:48:55.919Z,17.90
2017-08-22T19:51:23.474Z,17.80
2017-08-22T19:53:50.902Z,17.70
2017-08-22T19:56:18.332Z,17.70
2017-08-22T19:58:46.557Z,17.40
2017-08-22T20:01:13.971Z,17.40
2017-08-22T20:03:41.401Z,17.40
2017-08-22T20:06:09.016Z,17.30
2017-08-22T20:08:36.487Z,17.30
2017-08-22T20:11:03.900Z,17.30
2017-08-22T20:13:31.408Z,17.30
2017-08-22T20:15:58.873Z,17.30
2017-08-22T20:18:26.353Z,17.30
2017-08-22T20:20:54.574Z,17.30
2017-08-22T20:23:22.073Z,17.30
2017-08-22T20:25:49.520Z,17.30
2017-08-22T20:28:16.964Z,17.30
2017-08-22T20:30:44.401Z,17.30
2017-08-22T20:33:11.825Z,17.30
2017-08-22T20:35:39.321Z,17.30
2017-08-22T20:38:06.764Z,17.30
2017-08-22T20:40:34.249Z,17.30
2017-08-22T20:43:01.689Z,17.30
2017-08-22T20:45:29.109Z,17.20
2017-08-22T20:47:57.320Z,17.20
2017-08-22T20:50:24.750Z,17.20
2017-08-22T20:52:52.172Z,17.20
2017-08-22T20:55:20.372Z,17.10
2017-08-22T20:57:47.789Z,17.10
2017-08-22T21:00:15.213Z,17.10
2017-08-22T21:02:42.649Z,17.00
2017-08-22T21:05:10.219Z,17.00
2017-08-22T21:07:37.672Z,17.00
2017-08-22T21:10:05.115Z,17.00
2017-08-22T21:12:32.593Z,16.90
2017-08-22T21:15:00.053Z,16.90
2017-08-22T21:17:27.468Z,16.90
2017-08-22T21:19:54.923Z,16.90
2017-08-22T21:22:22.518Z,16.90
2017-08-22T21:24:49.928Z,16.90
2017-08-22T21:27:17.433Z,16.90
2017-08-22T21:29:44.856Z,16.90
2017-08-22T21:32:12.301Z,16.90
2017-08-22T21:34:40.519Z,16.90
2017-08-22T21:37:07.992Z,16.80
2017-08-22T21:39:35.426Z,16.90
2017-08-22T21:42:02.904Z,16.80
2017-08-22T21:44:30.335Z,16.80
2017-08-22T21:46:58.624Z,16.50
2017-08-22T21:49:26.042Z,16.50
2017-08-22T21:51:53.484Z,16.40
2017-08-22T21:54:20.921Z,16.30
2017-08-22T21:56:48.442Z,16.40
2017-08-22T21:59:15.892Z,16.40
2017-08-22T22:01:43.317Z,16.30
2017-08-22T22:04:10.748Z,16.20
2017-08-22T22:06:38.159Z,16.30
2017-08-22T22:09:05.623Z,16.20
2017-08-22T22:11:33.065Z,16.10
2017-08-22T22:14:00.495Z,16.00
2017-08-22T22:16:27.999Z,16.00
2017-08-22T22:18:55.449Z,15.90
2017-08-22T22:21:22.928Z,15.80
2017-08-22T22:23:51.040Z,15.80
2017-08-22T22:26:18.473Z,15.80
2017-08-22T22:28:45.981Z,15.70
2017-08-22T22:31:13.426Z,15.70
2017-08-22T22:33:40.860Z,15.70
2017-08-22T22:36:08.403Z,15.70
2017-08-22T22:38:35.834Z,15.70
2017-08-22T22:41:03.297Z,15.70
2017-08-22T22:43:30.752Z,15.70
2017-08-22T22:45:58.209Z,15.70
2017-08-22T22:48:25.633Z,15.80
2017-08-22T22:50:53.212Z,15.80
2017-08-22T22:53:20.772Z,15.80
2017-08-22T22:55:48.207Z,15.70
2017-08-22T22:58:15.692Z,15.60
2017-08-22T23:00:43.155Z,15.50
2017-08-22T23:03:10.605Z,15.40
2017-08-22T23:05:38.047Z,15.30
2017-08-22T23:08:05.469Z,15.20
2017-08-22T23:10:32.971Z,15.10
2017-08-22T23:13:00.436Z,15.10
2017-08-22T23:15:27.980Z,15.20
2017-08-22T23:17:55.407Z,15.30
2017-08-22T23:20:22.865Z,15.30
2017-08-22T23:22:50.294Z,15.30
2017-08-22T23:25:17.801Z,15.20
2017-08-22T23:27:45.223Z,15.20
2017-08-22T23:30:12.816Z,15.20
2017-08-22T23:32:40.382Z,15.10
2017-08-22T23:35:07.804Z,15.10
2017-08-22T23:37:35.245Z,14.90
2017-08-22T23:40:02.746Z,14.80
2017-08-22T23:42:30.160Z,14.80
2017-08-22T23:44:57.657Z,14.80
2017-08-22T23:47:25.085Z,14.90
2017-08-22T23:49:52.600Z,15.00
2017-08-22T23:52:20.024Z,15.00
2017-08-22T23:54:47.491Z,14.90
2017-08-22T23:57:14.987Z,14.80
2017-08-22T23:59:42.503Z,14.80
